sensor_id;sensor_type;location;lat;lon;timestamp;temperature;humidity
71627;DHT22;59475;52.464;13.590;2024-01-25T00:00:30;8.75;74.63
71627;DHT22;59475;52.464;13.590;2024-01-25T00:02:56;8.72;74.98
71627;DHT22;59475;52.464;13.590;2024-01-25T00:05:21;8.75;74.81
71627;DHT22;59475;52.464;13.590;2024-01-25T00:07:50;8.71;75.22
71627;DHT22;59475;52.464;13.590;2024-01-25T00:10:18;8.75;75.24
71627;DHT22;59475;52.464;13.590;2024-01-25T00:12:44;8.71;75.74
71627;DHT22;59475;52.464;13.590;2024-01-25T00:15:10;8.65;76.08
71627;DHT22;59475;52.464;13.590;2024-01-25T00:17:36;8.65;76.26
71627;DHT22;59475;52.464;13.590;2024-01-25T00:20:02;8.58;76.56
71627;DHT22;59475;52.464;13.590;2024-01-25T00:22:27;8.54;77.15
71627;DHT22;59475;52.464;13.590;2024-01-25T00:24:53;8.53;77.34
71627;DHT22;59475;52.464;13.590;2024-01-25T00:27:18;8.51;77.53
71627;DHT22;59475;52.464;13.590;2024-01-25T00:29:44;8.50;77.79
71627;DHT22;59475;52.464;13.590;2024-01-25T00:32:09;8.48;77.62
71627;DHT22;59475;52.464;13.590;2024-01-25T00:34:35;8.43;78.06
71627;DHT22;59475;52.464;13.590;2024-01-25T00:37:00;8.47;78.27
71627;DHT22;59475;52.464;13.590;2024-01-25T00:39:26;8.43;78.26
71627;DHT22;59475;52.464;13.590;2024-01-25T00:41:52;8.40;78.34
71627;DHT22;59475;52.464;13.590;2024-01-25T00:44:21;8.40;78.43
71627;DHT22;59475;52.464;13.590;2024-01-25T00:46:47;8.44;78.14
71627;DHT22;59475;52.464;13.590;2024-01-25T00:49:13;8.40;78.36
71627;DHT22;59475;52.464;13.590;2024-01-25T00:51:41;8.37;78.32
71627;DHT22;59475;52.464;13.590;2024-01-25T00:54:11;8.41;78.17
71627;DHT22;59475;52.464;13.590;2024-01-25T00:56:36;8.40;78.44
71627;DHT22;59475;52.464;13.590;2024-01-25T00:59:02;8.40;78.21
71627;DHT22;59475;52.464;13.590;2024-01-25T01:01:28;8.43;78.34
71627;DHT22;59475;52.464;13.590;2024-01-25T01:03:55;8.37;78.16
71627;DHT22;59475;52.464;13.590;2024-01-25T01:06:20;8.36;78.37
71627;DHT22;59475;52.464;13.590;2024-01-25T01:08:46;8.37;78.24
71627;DHT22;59475;52.464;13.590;2024-01-25T01:11:12;8.38;78.03
71627;DHT22;59475;52.464;13.590;2024-01-25T01:13:37;8.33;78.22
71627;DHT22;59475;52.464;13.590;2024-01-25T01:16:03;8.38;78.05
71627;DHT22;59475;52.464;13.590;2024-01-25T01:18:28;8.37;78.10
71627;DHT22;59475;52.464;13.590;2024-01-25T01:20:53;8.36;78.19
71627;DHT22;59475;52.464;13.590;2024-01-25T01:23:19;8.32;78.34
71627;DHT22;59475;52.464;13.590;2024-01-25T01:25:44;8.34;77.99
71627;DHT22;59475;52.464;13.590;2024-01-25T01:28:10;8.38;77.57
71627;DHT22;59475;52.464;13.590;2024-01-25T01:30:35;8.34;77.79
71627;DHT22;59475;52.464;13.590;2024-01-25T01:33:00;8.32;77.96
71627;DHT22;59475;52.464;13.590;2024-01-25T01:35:26;8.29;77.97
71627;DHT22;59475;52.464;13.590;2024-01-25T01:37:51;8.34;77.76
71627;DHT22;59475;52.464;13.590;2024-01-25T01:40:16;8.37;77.73
71627;DHT22;59475;52.464;13.590;2024-01-25T01:42:42;8.32;77.70
71627;DHT22;59475;52.464;13.590;2024-01-25T01:45:11;8.38;77.67
71627;DHT22;59475;52.464;13.590;2024-01-25T01:47:37;8.33;77.76
71627;DHT22;59475;52.464;13.590;2024-01-25T01:50:02;8.33;77.81
71627;DHT22;59475;52.464;13.590;2024-01-25T01:52:28;8.34;77.75
71627;DHT22;59475;52.464;13.590;2024-01-25T01:54:53;8.37;77.58
71627;DHT22;59475;52.464;13.590;2024-01-25T01:57:19;8.36;77.67
71627;DHT22;59475;52.464;13.590;2024-01-25T01:59:45;8.41;77.25
71627;DHT22;59475;52.464;13.590;2024-01-25T02:02:11;8.41;77.23
71627;DHT22;59475;52.464;13.590;2024-01-25T02:04:36;8.40;77.27
71627;DHT22;59475;52.464;13.590;2024-01-25T02:07:01;8.37;77.60
71627;DHT22;59475;52.464;13.590;2024-01-25T02:09:27;8.36;77.60
71627;DHT22;59475;52.464;13.590;2024-01-25T02:12:01;8.32;77.75
71627;DHT22;59475;52.464;13.590;2024-01-25T02:14:27;8.34;77.49
71627;DHT22;59475;52.464;13.590;2024-01-25T02:16:52;8.32;77.58
71627;DHT22;59475;52.464;13.590;2024-01-25T02:19:17;8.36;77.48
71627;DHT22;59475;52.464;13.590;2024-01-25T02:21:43;8.33;77.46
71627;DHT22;59475;52.464;13.590;2024-01-25T02:24:08;8.33;77.54
71627;DHT22;59475;52.464;13.590;2024-01-25T02:26:34;8.29;77.81
71627;DHT22;59475;52.464;13.590;2024-01-25T02:29:00;8.24;77.86
71627;DHT22;59475;52.464;13.590;2024-01-25T02:31:25;8.26;77.77
71627;DHT22;59475;52.464;13.590;2024-01-25T02:33:51;8.24;78.13
71627;DHT22;59475;52.464;13.590;2024-01-25T02:36:16;8.19;78.33
71627;DHT22;59475;52.464;13.590;2024-01-25T02:38:42;8.17;78.19
71627;DHT22;59475;52.464;13.590;2024-01-25T02:41:07;8.20;78.19
71627;DHT22;59475;52.464;13.590;2024-01-25T02:43:32;8.19;78.09
71627;DHT22;59475;52.464;13.590;2024-01-25T02:45:58;8.19;78.10
71627;DHT22;59475;52.464;13.590;2024-01-25T02:48:23;8.19;78.06
71627;DHT22;59475;52.464;13.590;2024-01-25T02:50:49;8.13;78.47
71627;DHT22;59475;52.464;13.590;2024-01-25T02:53:14;8.14;78.57
71627;DHT22;59475;52.464;13.590;2024-01-25T02:55:39;8.13;78.32
71627;DHT22;59475;52.464;13.590;2024-01-25T02:58:05;8.07;78.66
71627;DHT22;59475;52.464;13.590;2024-01-25T03:00:30;8.06;79.03
71627;DHT22;59475;52.464;13.590;2024-01-25T03:02:56;8.03;79.06
71627;DHT22;59475;52.464;13.590;2024-01-25T03:05:21;8.09;78.79
71627;DHT22;59475;52.464;13.590;2024-01-25T03:07:46;8.03;79.19
71627;DHT22;59475;52.464;13.590;2024-01-25T03:10:12;8.03;79.18
71627;DHT22;59475;52.464;13.590;2024-01-25T03:12:38;8.03;78.40
71627;DHT22;59475;52.464;13.590;2024-01-25T03:15:04;8.09;78.51
71627;DHT22;59475;52.464;13.590;2024-01-25T03:17:29;8.06;78.61
71627;DHT22;59475;52.464;13.590;2024-01-25T03:19:55;8.06;78.49
71627;DHT22;59475;52.464;13.590;2024-01-25T03:22:21;8.03;78.35
71627;DHT22;59475;52.464;13.590;2024-01-25T03:24:47;8.07;77.99
71627;DHT22;59475;52.464;13.590;2024-01-25T03:27:13;8.13;77.69
71627;DHT22;59475;52.464;13.590;2024-01-25T03:29:43;8.07;78.13
71627;DHT22;59475;52.464;13.590;2024-01-25T03:32:09;8.09;77.60
71627;DHT22;59475;52.464;13.590;2024-01-25T03:34:35;8.06;77.56
71627;DHT22;59475;52.464;13.590;2024-01-25T03:37:00;8.07;77.69
71627;DHT22;59475;52.464;13.590;2024-01-25T03:39:25;8.07;77.76
71627;DHT22;59475;52.464;13.590;2024-01-25T03:41:51;8.05;77.49
71627;DHT22;59475;52.464;13.590;2024-01-25T03:44:16;8.02;77.63
71627;DHT22;59475;52.464;13.590;2024-01-25T03:46:41;8.05;77.58
71627;DHT22;59475;52.464;13.590;2024-01-25T03:49:07;8.03;77.33
71627;DHT22;59475;52.464;13.590;2024-01-25T03:51:32;8.06;77.14
71627;DHT22;59475;52.464;13.590;2024-01-25T03:53:57;8.05;77.10
71627;DHT22;59475;52.464;13.590;2024-01-25T03:56:23;8.05;77.22
71627;DHT22;59475;52.464;13.590;2024-01-25T03:58:49;8.02;77.16
71627;DHT22;59475;52.464;13.590;2024-01-25T04:01:15;7.99;77.19
71627;DHT22;59475;52.464;13.590;2024-01-25T04:03:40;8.00;77.20
71627;DHT22;59475;52.464;13.590;2024-01-25T04:06:06;8.02;77.37
71627;DHT22;59475;52.464;13.590;2024-01-25T04:08:31;8.00;77.33
71627;DHT22;59475;52.464;13.590;2024-01-25T04:10:57;7.96;77.50
71627;DHT22;59475;52.464;13.590;2024-01-25T04:13:22;7.97;77.35
71627;DHT22;59475;52.464;13.590;2024-01-25T04:15:47;7.93;77.36
71627;DHT22;59475;52.464;13.590;2024-01-25T04:18:13;7.97;77.31
71627;DHT22;59475;52.464;13.590;2024-01-25T04:20:40;7.96;77.54
71627;DHT22;59475;52.464;13.590;2024-01-25T04:23:06;7.96;77.50
71627;DHT22;59475;52.464;13.590;2024-01-25T04:25:31;7.95;77.49
71627;DHT22;59475;52.464;13.590;2024-01-25T04:27:57;7.93;77.83
71627;DHT22;59475;52.464;13.590;2024-01-25T04:30:22;7.90;77.85
71627;DHT22;59475;52.464;13.590;2024-01-25T04:32:48;7.89;77.69
71627;DHT22;59475;52.464;13.590;2024-01-25T04:35:13;7.88;77.78
71627;DHT22;59475;52.464;13.590;2024-01-25T04:37:38;7.90;77.43
71627;DHT22;59475;52.464;13.590;2024-01-25T04:40:04;7.90;77.67
71627;DHT22;59475;52.464;13.590;2024-01-25T04:42:30;7.89;77.99
71627;DHT22;59475;52.464;13.590;2024-01-25T04:44:55;7.85;78.14
71627;DHT22;59475;52.464;13.590;2024-01-25T04:47:21;7.85;78.06
71627;DHT22;59475;52.464;13.590;2024-01-25T04:49:47;7.86;78.08
71627;DHT22;59475;52.464;13.590;2024-01-25T04:52:12;7.82;78.53
71627;DHT22;59475;52.464;13.590;2024-01-25T04:54:37;7.81;78.56
71627;DHT22;59475;52.464;13.590;2024-01-25T04:57:03;7.85;78.72
71627;DHT22;59475;52.464;13.590;2024-01-25T04:59:34;7.83;78.20
71627;DHT22;59475;52.464;13.590;2024-01-25T05:02:00;7.83;78.61
71627;DHT22;59475;52.464;13.590;2024-01-25T05:04:25;7.81;78.45
71627;DHT22;59475;52.464;13.590;2024-01-25T05:06:51;7.81;78.05
71627;DHT22;59475;52.464;13.590;2024-01-25T05:09:16;7.88;77.90
71627;DHT22;59475;52.464;13.590;2024-01-25T05:11:41;7.82;78.19
71627;DHT22;59475;52.464;13.590;2024-01-25T05:14:07;7.82;78.26
71627;DHT22;59475;52.464;13.590;2024-01-25T05:16:32;7.82;78.23
71627;DHT22;59475;52.464;13.590;2024-01-25T05:18:58;7.79;78.49
71627;DHT22;59475;52.464;13.590;2024-01-25T05:21:23;7.75;78.82
71627;DHT22;59475;52.464;13.590;2024-01-25T05:23:49;7.79;78.65
71627;DHT22;59475;52.464;13.590;2024-01-25T05:26:15;7.79;78.56
71627;DHT22;59475;52.464;13.590;2024-01-25T05:28:41;7.78;78.50
71627;DHT22;59475;52.464;13.590;2024-01-25T05:31:06;7.81;78.56
71627;DHT22;59475;52.464;13.590;2024-01-25T05:33:38;7.82;78.47
71627;DHT22;59475;52.464;13.590;2024-01-25T05:36:03;7.78;78.55
71627;DHT22;59475;52.464;13.590;2024-01-25T05:38:29;7.76;79.13
71627;DHT22;59475;52.464;13.590;2024-01-25T05:40:54;7.72;78.97
71627;DHT22;59475;52.464;13.590;2024-01-25T05:43:19;7.74;78.79
71627;DHT22;59475;52.464;13.590;2024-01-25T05:45:45;7.69;79.02
71627;DHT22;59475;52.464;13.590;2024-01-25T05:48:10;7.74;78.45
71627;DHT22;59475;52.464;13.590;2024-01-25T05:50:36;7.74;78.60
71627;DHT22;59475;52.464;13.590;2024-01-25T05:53:01;7.69;78.82
71627;DHT22;59475;52.464;13.590;2024-01-25T05:55:26;7.69;78.63
71627;DHT22;59475;52.464;13.590;2024-01-25T05:57:52;7.69;78.31
71627;DHT22;59475;52.464;13.590;2024-01-25T06:00:17;7.72;78.20
71627;DHT22;59475;52.464;13.590;2024-01-25T06:02:42;7.75;77.86
71627;DHT22;59475;52.464;13.590;2024-01-25T06:05:09;7.74;77.61
71627;DHT22;59475;52.464;13.590;2024-01-25T06:07:34;7.75;77.59
71627;DHT22;59475;52.464;13.590;2024-01-25T06:09:59;7.79;77.38
71627;DHT22;59475;52.464;13.590;2024-01-25T06:12:25;7.74;77.56
71627;DHT22;59475;52.464;13.590;2024-01-25T06:14:50;7.81;77.40
71627;DHT22;59475;52.464;13.590;2024-01-25T06:17:17;7.81;77.35
71627;DHT22;59475;52.464;13.590;2024-01-25T06:19:43;7.79;77.11
71627;DHT22;59475;52.464;13.590;2024-01-25T06:22:08;7.82;76.95
71627;DHT22;59475;52.464;13.590;2024-01-25T06:24:33;7.85;76.98
71627;DHT22;59475;52.464;13.590;2024-01-25T06:26:59;7.83;76.96
71627;DHT22;59475;52.464;13.590;2024-01-25T06:29:24;7.82;77.18
71627;DHT22;59475;52.464;13.590;2024-01-25T06:31:49;7.83;77.16
71627;DHT22;59475;52.464;13.590;2024-01-25T06:34:15;7.79;77.24
71627;DHT22;59475;52.464;13.590;2024-01-25T06:36:40;7.82;77.25
71627;DHT22;59475;52.464;13.590;2024-01-25T06:39:06;7.85;77.26
71627;DHT22;59475;52.464;13.590;2024-01-25T06:41:31;7.81;77.29
71627;DHT22;59475;52.464;13.590;2024-01-25T06:43:57;7.82;77.34
71627;DHT22;59475;52.464;13.590;2024-01-25T06:46:22;7.79;77.59
71627;DHT22;59475;52.464;13.590;2024-01-25T06:48:49;7.76;77.63
71627;DHT22;59475;52.464;13.590;2024-01-25T06:51:15;7.76;77.42
71627;DHT22;59475;52.464;13.590;2024-01-25T06:53:40;7.78;77.31
71627;DHT22;59475;52.464;13.590;2024-01-25T06:56:06;7.81;76.64
71627;DHT22;59475;52.464;13.590;2024-01-25T06:58:31;7.85;76.79
71627;DHT22;59475;52.464;13.590;2024-01-25T07:00:57;7.83;76.63
71627;DHT22;59475;52.464;13.590;2024-01-25T07:03:23;7.85;76.86
71627;DHT22;59475;52.464;13.590;2024-01-25T07:05:48;7.83;76.47
71627;DHT22;59475;52.464;13.590;2024-01-25T07:08:13;7.86;76.51
71627;DHT22;59475;52.464;13.590;2024-01-25T07:10:40;7.88;76.44
71627;DHT22;59475;52.464;13.590;2024-01-25T07:13:05;7.82;76.78
71627;DHT22;59475;52.464;13.590;2024-01-25T07:15:31;7.82;76.94
71627;DHT22;59475;52.464;13.590;2024-01-25T07:17:57;7.83;76.82
71627;DHT22;59475;52.464;13.590;2024-01-25T07:20:22;7.82;76.43
71627;DHT22;59475;52.464;13.590;2024-01-25T07:22:48;7.81;76.83
71627;DHT22;59475;52.464;13.590;2024-01-25T07:25:13;7.88;76.11
71627;DHT22;59475;52.464;13.590;2024-01-25T07:27:39;7.86;76.47
71627;DHT22;59475;52.464;13.590;2024-01-25T07:30:04;7.88;76.55
71627;DHT22;59475;52.464;13.590;2024-01-25T07:32:30;7.88;76.75
71627;DHT22;59475;52.464;13.590;2024-01-25T07:34:57;7.85;77.26
71627;DHT22;59475;52.464;13.590;2024-01-25T07:37:23;7.82;77.25
71627;DHT22;59475;52.464;13.590;2024-01-25T07:39:48;7.82;77.17
71627;DHT22;59475;52.464;13.590;2024-01-25T07:42:13;7.85;77.57
71627;DHT22;59475;52.464;13.590;2024-01-25T07:44:39;7.83;77.26
71627;DHT22;59475;52.464;13.590;2024-01-25T07:47:04;7.82;77.37
71627;DHT22;59475;52.464;13.590;2024-01-25T07:49:30;7.88;77.32
71627;DHT22;59475;52.464;13.590;2024-01-25T07:51:55;7.86;77.27
71627;DHT22;59475;52.464;13.590;2024-01-25T07:54:24;7.83;77.62
71627;DHT22;59475;52.464;13.590;2024-01-25T07:56:49;7.83;77.40
71627;DHT22;59475;52.464;13.590;2024-01-25T07:59:15;7.86;77.21
71627;DHT22;59475;52.464;13.590;2024-01-25T08:01:40;7.89;77.05
71627;DHT22;59475;52.464;13.590;2024-01-25T08:04:06;7.89;76.87
71627;DHT22;59475;52.464;13.590;2024-01-25T08:06:31;7.86;76.76
71627;DHT22;59475;52.464;13.590;2024-01-25T08:08:57;7.86;76.93
71627;DHT22;59475;52.464;13.590;2024-01-25T08:11:22;7.92;76.68
71627;DHT22;59475;52.464;13.590;2024-01-25T08:13:48;7.88;76.37
71627;DHT22;59475;52.464;13.590;2024-01-25T08:16:14;7.85;76.70
71627;DHT22;59475;52.464;13.590;2024-01-25T08:18:44;7.89;76.61
71627;DHT22;59475;52.464;13.590;2024-01-25T08:21:11;7.88;76.62
71627;DHT22;59475;52.464;13.590;2024-01-25T08:23:36;7.88;76.98
71627;DHT22;59475;52.464;13.590;2024-01-25T08:26:02;7.88;77.09
71627;DHT22;59475;52.464;13.590;2024-01-25T08:28:28;7.88;77.10
71627;DHT22;59475;52.464;13.590;2024-01-25T08:30:53;7.90;76.82
71627;DHT22;59475;52.464;13.590;2024-01-25T08:33:18;7.85;77.29
71627;DHT22;59475;52.464;13.590;2024-01-25T08:35:44;7.89;77.02
71627;DHT22;59475;52.464;13.590;2024-01-25T08:38:09;7.86;76.90
71627;DHT22;59475;52.464;13.590;2024-01-25T08:40:34;7.89;76.80
71627;DHT22;59475;52.464;13.590;2024-01-25T08:43:00;7.93;76.64
71627;DHT22;59475;52.464;13.590;2024-01-25T08:45:25;7.90;76.57
71627;DHT22;59475;52.464;13.590;2024-01-25T08:47:51;7.93;76.56
71627;DHT22;59475;52.464;13.590;2024-01-25T08:50:17;7.93;76.51
71627;DHT22;59475;52.464;13.590;2024-01-25T08:52:43;7.95;76.89
71627;DHT22;59475;52.464;13.590;2024-01-25T08:55:08;7.95;76.57
71627;DHT22;59475;52.464;13.590;2024-01-25T08:57:37;7.95;76.36
71627;DHT22;59475;52.464;13.590;2024-01-25T09:00:03;8.00;76.27
71627;DHT22;59475;52.464;13.590;2024-01-25T09:02:33;7.97;76.47
71627;DHT22;59475;52.464;13.590;2024-01-25T09:04:59;8.02;76.66
71627;DHT22;59475;52.464;13.590;2024-01-25T09:07:24;8.02;76.49
71627;DHT22;59475;52.464;13.590;2024-01-25T09:09:50;8.07;76.24
71627;DHT22;59475;52.464;13.590;2024-01-25T09:12:15;8.06;76.50
71627;DHT22;59475;52.464;13.590;2024-01-25T09:14:41;8.06;76.74
71627;DHT22;59475;52.464;13.590;2024-01-25T09:17:08;8.06;76.30
71627;DHT22;59475;52.464;13.590;2024-01-25T09:19:34;8.02;76.11
71627;DHT22;59475;52.464;13.590;2024-01-25T09:21:59;8.05;76.14
71627;DHT22;59475;52.464;13.590;2024-01-25T09:24:29;8.10;76.34
71627;DHT22;59475;52.464;13.590;2024-01-25T09:26:54;8.05;76.46
71627;DHT22;59475;52.464;13.590;2024-01-25T09:29:21;8.13;76.02
71627;DHT22;59475;52.464;13.590;2024-01-25T09:31:46;8.13;75.85
71627;DHT22;59475;52.464;13.590;2024-01-25T09:34:11;8.07;76.18
71627;DHT22;59475;52.464;13.590;2024-01-25T09:36:37;8.03;75.98
71627;DHT22;59475;52.464;13.590;2024-01-25T09:39:02;8.03;76.18
71627;DHT22;59475;52.464;13.590;2024-01-25T09:41:29;8.02;76.07
71627;DHT22;59475;52.464;13.590;2024-01-25T09:43:54;8.03;76.20
71627;DHT22;59475;52.464;13.590;2024-01-25T09:46:20;8.00;76.45
71627;DHT22;59475;52.464;13.590;2024-01-25T09:48:46;8.03;76.32
71627;DHT22;59475;52.464;13.590;2024-01-25T09:51:13;7.95;76.33
71627;DHT22;59475;52.464;13.590;2024-01-25T09:53:39;7.99;76.43
71627;DHT22;59475;52.464;13.590;2024-01-25T09:56:08;8.00;76.54
71627;DHT22;59475;52.464;13.590;2024-01-25T09:58:43;8.00;76.62
71627;DHT22;59475;52.464;13.590;2024-01-25T10:01:12;7.97;76.27
71627;DHT22;59475;52.464;13.590;2024-01-25T10:03:38;7.96;76.82
71627;DHT22;59475;52.464;13.590;2024-01-25T10:06:07;8.00;76.54
71627;DHT22;59475;52.464;13.590;2024-01-25T10:08:32;8.06;76.69
71627;DHT22;59475;52.464;13.590;2024-01-25T10:10:57;7.96;76.60
71627;DHT22;59475;52.464;13.590;2024-01-25T10:13:23;7.99;76.61
71627;DHT22;59475;52.464;13.590;2024-01-25T10:15:48;7.96;76.55
71627;DHT22;59475;52.464;13.590;2024-01-25T10:18:14;7.97;77.04
71627;DHT22;59475;52.464;13.590;2024-01-25T10:20:42;8.00;76.87
71627;DHT22;59475;52.464;13.590;2024-01-25T10:23:08;8.00;77.01
71627;DHT22;59475;52.464;13.590;2024-01-25T10:25:37;8.00;76.74
71627;DHT22;59475;52.464;13.590;2024-01-25T10:28:06;8.03;76.40
71627;DHT22;59475;52.464;13.590;2024-01-25T10:30:32;8.03;76.63
71627;DHT22;59475;52.464;13.590;2024-01-25T10:33:01;8.05;76.90
71627;DHT22;59475;52.464;13.590;2024-01-25T10:35:27;8.09;76.44
71627;DHT22;59475;52.464;13.590;2024-01-25T10:37:53;8.09;76.71
71627;DHT22;59475;52.464;13.590;2024-01-25T10:40:19;8.12;76.98
71627;DHT22;59475;52.464;13.590;2024-01-25T10:42:45;8.10;77.28
71627;DHT22;59475;52.464;13.590;2024-01-25T10:45:11;8.12;77.36
71627;DHT22;59475;52.464;13.590;2024-01-25T10:47:36;8.13;77.17
71627;DHT22;59475;52.464;13.590;2024-01-25T10:50:03;8.12;77.42
71627;DHT22;59475;52.464;13.590;2024-01-25T10:52:29;8.10;77.22
71627;DHT22;59475;52.464;13.590;2024-01-25T10:54:55;8.05;77.56
71627;DHT22;59475;52.464;13.590;2024-01-25T10:57:21;8.12;76.76
71627;DHT22;59475;52.464;13.590;2024-01-25T10:59:46;8.13;76.55
71627;DHT22;59475;52.464;13.590;2024-01-25T11:02:12;8.10;76.44
71627;DHT22;59475;52.464;13.590;2024-01-25T11:04:37;8.14;76.19
71627;DHT22;59475;52.464;13.590;2024-01-25T11:07:09;8.17;76.02
71627;DHT22;59475;52.464;13.590;2024-01-25T11:09:35;8.19;76.31
71627;DHT22;59475;52.464;13.590;2024-01-25T11:12:11;8.27;76.38
71627;DHT22;59475;52.464;13.590;2024-01-25T11:14:37;8.29;75.84
71627;DHT22;59475;52.464;13.590;2024-01-25T11:17:15;8.24;76.18
71627;DHT22;59475;52.464;13.590;2024-01-25T11:19:40;8.26;76.01
71627;DHT22;59475;52.464;13.590;2024-01-25T11:22:06;8.30;76.05
71627;DHT22;59475;52.464;13.590;2024-01-25T11:24:37;8.36;75.81
71627;DHT22;59475;52.464;13.590;2024-01-25T11:27:05;8.37;76.00
71627;DHT22;59475;52.464;13.590;2024-01-25T11:29:30;8.38;75.84
71627;DHT22;59475;52.464;13.590;2024-01-25T11:31:56;8.48;75.72
71627;DHT22;59475;52.464;13.590;2024-01-25T11:34:22;8.51;75.21
71627;DHT22;59475;52.464;13.590;2024-01-25T11:36:48;8.41;75.61
71627;DHT22;59475;52.464;13.590;2024-01-25T11:39:15;8.45;75.74
71627;DHT22;59475;52.464;13.590;2024-01-25T11:41:44;8.41;76.08
71627;DHT22;59475;52.464;13.590;2024-01-25T11:44:11;8.37;76.00
71627;DHT22;59475;52.464;13.590;2024-01-25T11:46:37;8.41;75.91
71627;DHT22;59475;52.464;13.590;2024-01-25T11:49:02;8.57;75.73
71627;DHT22;59475;52.464;13.590;2024-01-25T11:51:28;8.54;75.66
71627;DHT22;59475;52.464;13.590;2024-01-25T11:53:53;8.53;75.28
71627;DHT22;59475;52.464;13.590;2024-01-25T11:56:24;8.55;75.26
71627;DHT22;59475;52.464;13.590;2024-01-25T11:58:50;8.53;75.22
71627;DHT22;59475;52.464;13.590;2024-01-25T12:01:17;8.54;74.38
71627;DHT22;59475;52.464;13.590;2024-01-25T12:03:43;8.60;74.68
71627;DHT22;59475;52.464;13.590;2024-01-25T12:06:09;8.67;74.62
71627;DHT22;59475;52.464;13.590;2024-01-25T12:08:35;8.72;74.11
71627;DHT22;59475;52.464;13.590;2024-01-25T12:13:38;8.60;74.07
71627;DHT22;59475;52.464;13.590;2024-01-25T12:16:04;8.61;73.67
71627;DHT22;59475;52.464;13.590;2024-01-25T12:18:30;8.73;74.04
71627;DHT22;59475;52.464;13.590;2024-01-25T12:21:00;8.81;73.13
71627;DHT22;59475;52.464;13.590;2024-01-25T12:23:37;8.72;72.96
71627;DHT22;59475;52.464;13.590;2024-01-25T12:26:09;8.69;72.79
71627;DHT22;59475;52.464;13.590;2024-01-25T12:28:36;8.64;72.81
71627;DHT22;59475;52.464;13.590;2024-01-25T12:31:05;8.58;73.36
71627;DHT22;59475;52.464;13.590;2024-01-25T12:33:32;8.53;73.55
71627;DHT22;59475;52.464;13.590;2024-01-25T12:35:57;8.55;73.98
71627;DHT22;59475;52.464;13.590;2024-01-25T12:38:24;8.62;74.03
71627;DHT22;59475;52.464;13.590;2024-01-25T12:40:51;8.65;73.11
71627;DHT22;59475;52.464;13.590;2024-01-25T12:43:17;8.61;73.49
71627;DHT22;59475;52.464;13.590;2024-01-25T12:45:43;8.57;73.17
71627;DHT22;59475;52.464;13.590;2024-01-25T12:48:09;8.48;74.00
71627;DHT22;59475;52.464;13.590;2024-01-25T12:50:35;8.41;73.82
71627;DHT22;59475;52.464;13.590;2024-01-25T12:53:01;8.43;74.17
71627;DHT22;59475;52.464;13.590;2024-01-25T12:55:31;8.43;73.59
71627;DHT22;59475;52.464;13.590;2024-01-25T12:57:57;8.43;73.75
71627;DHT22;59475;52.464;13.590;2024-01-25T13:00:23;8.44;74.01
71627;DHT22;59475;52.464;13.590;2024-01-25T13:02:49;8.48;74.14
71627;DHT22;59475;52.464;13.590;2024-01-25T13:05:15;8.47;74.67
71627;DHT22;59475;52.464;13.590;2024-01-25T13:07:40;8.45;74.65
71627;DHT22;59475;52.464;13.590;2024-01-25T13:10:07;8.47;74.91
71627;DHT22;59475;52.464;13.590;2024-01-25T13:12:32;8.44;75.25
71627;DHT22;59475;52.464;13.590;2024-01-25T13:14:58;8.41;75.12
71627;DHT22;59475;52.464;13.590;2024-01-25T13:17:23;8.37;75.21
71627;DHT22;59475;52.464;13.590;2024-01-25T13:19:50;8.32;75.85
71627;DHT22;59475;52.464;13.590;2024-01-25T13:22:16;8.23;76.25
71627;DHT22;59475;52.464;13.590;2024-01-25T13:24:46;8.22;76.73
71627;DHT22;59475;52.464;13.590;2024-01-25T13:27:11;8.19;77.04
71627;DHT22;59475;52.464;13.590;2024-01-25T13:29:37;8.14;77.24
71627;DHT22;59475;52.464;13.590;2024-01-25T13:32:02;8.06;77.76
71627;DHT22;59475;52.464;13.590;2024-01-25T13:34:28;8.14;77.70
71627;DHT22;59475;52.464;13.590;2024-01-25T13:36:53;8.16;77.64
71627;DHT22;59475;52.464;13.590;2024-01-25T13:39:19;8.20;77.76
71627;DHT22;59475;52.464;13.590;2024-01-25T13:41:44;8.19;77.66
71627;DHT22;59475;52.464;13.590;2024-01-25T13:44:13;8.19;77.49
71627;DHT22;59475;52.464;13.590;2024-01-25T13:46:38;8.22;76.77
71627;DHT22;59475;52.464;13.590;2024-01-25T13:49:04;8.20;76.90
71627;DHT22;59475;52.464;13.590;2024-01-25T13:51:29;8.19;77.31
71627;DHT22;59475;52.464;13.590;2024-01-25T13:53:55;8.17;77.08
71627;DHT22;59475;52.464;13.590;2024-01-25T13:56:20;8.17;77.31
71627;DHT22;59475;52.464;13.590;2024-01-25T13:58:45;8.19;77.54
71627;DHT22;59475;52.464;13.590;2024-01-25T14:01:11;8.16;77.49
71627;DHT22;59475;52.464;13.590;2024-01-25T14:03:36;8.17;77.41
71627;DHT22;59475;52.464;13.590;2024-01-25T14:06:02;8.26;76.82
71627;DHT22;59475;52.464;13.590;2024-01-25T14:08:30;8.20;76.93
71627;DHT22;59475;52.464;13.590;2024-01-25T14:10:56;8.24;76.60
71627;DHT22;59475;52.464;13.590;2024-01-25T14:13:21;8.23;76.80
71627;DHT22;59475;52.464;13.590;2024-01-25T14:15:47;8.17;76.58
71627;DHT22;59475;52.464;13.590;2024-01-25T14:18:12;8.14;76.62
71627;DHT22;59475;52.464;13.590;2024-01-25T14:20:38;8.14;76.33
71627;DHT22;59475;52.464;13.590;2024-01-25T14:23:03;8.12;76.30
71627;DHT22;59475;52.464;13.590;2024-01-25T14:25:28;8.14;76.37
71627;DHT22;59475;52.464;13.590;2024-01-25T14:27:54;8.13;76.49
71627;DHT22;59475;52.464;13.590;2024-01-25T14:30:19;8.14;76.41
71627;DHT22;59475;52.464;13.590;2024-01-25T14:32:45;8.16;76.08
71627;DHT22;59475;52.464;13.590;2024-01-25T14:35:12;8.16;75.99
71627;DHT22;59475;52.464;13.590;2024-01-25T14:37:37;8.10;76.33
71627;DHT22;59475;52.464;13.590;2024-01-25T14:40:03;8.07;76.21
71627;DHT22;59475;52.464;13.590;2024-01-25T14:42:29;8.13;75.96
71627;DHT22;59475;52.464;13.590;2024-01-25T14:44:54;8.07;75.88
71627;DHT22;59475;52.464;13.590;2024-01-25T14:47:19;8.14;75.78
71627;DHT22;59475;52.464;13.590;2024-01-25T14:49:46;8.06;75.98
71627;DHT22;59475;52.464;13.590;2024-01-25T14:52:11;8.06;75.84
71627;DHT22;59475;52.464;13.590;2024-01-25T14:54:36;8.09;75.69
71627;DHT22;59475;52.464;13.590;2024-01-25T14:57:02;8.00;75.78
71627;DHT22;59475;52.464;13.590;2024-01-25T14:59:27;8.02;75.67
71627;DHT22;59475;52.464;13.590;2024-01-25T15:01:53;7.97;76.09
71627;DHT22;59475;52.464;13.590;2024-01-25T15:04:18;7.97;75.89
71627;DHT22;59475;52.464;13.590;2024-01-25T15:06:43;7.92;75.99
71627;DHT22;59475;52.464;13.590;2024-01-25T15:09:09;7.88;76.19
71627;DHT22;59475;52.464;13.590;2024-01-25T15:11:34;7.83;76.34
71627;DHT22;59475;52.464;13.590;2024-01-25T15:14:00;7.76;76.67
71627;DHT22;59475;52.464;13.590;2024-01-25T15:16:25;7.76;76.48
71627;DHT22;59475;52.464;13.590;2024-01-25T15:18:51;7.76;76.72
71627;DHT22;59475;52.464;13.590;2024-01-25T15:21:16;7.81;76.67
71627;DHT22;59475;52.464;13.590;2024-01-25T15:23:42;7.79;76.96